sensor_id;sensor_type;location;lat;lon;timestamp;pressure;altitude;pressure_sealevel;temperature;humidity
55187;BME280;55457;52.002;5.464;2023-06-14T00:00:43;101342.59;;;26.08;37.11
55187;BME280;55457;52.002;5.464;2023-06-14T00:03:09;101339.03;;;26.08;36.61
55187;BME280;55457;52.002;5.464;2023-06-14T00:05:36;101346.41;;;26.07;36.78
55187;BME280;55457;52.002;5.464;2023-06-14T00:08:09;101344.50;;;26.08;36.81
55187;BME280;55457;52.002;5.464;2023-06-14T00:10:35;101346.41;;;26.07;36.88
55187;BME280;55457;52.002;5.464;2023-06-14T00:13:01;101332.22;;;26.05;36.70
55187;BME280;55457;52.002;5.464;2023-06-14T00:15:27;101339.31;;;26.06;36.80
55187;BME280;55457;52.002;5.464;2023-06-14T00:17:53;101342.06;;;26.06;36.81
55187;BME280;55457;52.002;5.464;2023-06-14T00:20:20;101343.16;;;26.05;36.81
55187;BME280;55457;52.002;5.464;2023-06-14T00:22:46;101342.31;;;26.05;37.08
55187;BME280;55457;52.002;5.464;2023-06-14T00:25:11;101347.75;;;26.05;37.01
55187;BME280;55457;52.002;5.464;2023-06-14T00:27:36;101349.44;;;26.06;36.88
55187;BME280;55457;52.002;5.464;2023-06-14T00:30:02;101349.69;;;26.04;36.60
55187;BME280;55457;52.002;5.464;2023-06-14T00:32:27;101343.41;;;26.03;36.68
55187;BME280;55457;52.002;5.464;2023-06-14T00:34:53;101354.31;;;26.03;36.99
55187;BME280;55457;52.002;5.464;2023-06-14T00:37:18;101345.31;;;26.03;36.76
55187;BME280;55457;52.002;5.464;2023-06-14T00:39:43;101351.59;;;26.03;36.89
55187;BME280;55457;52.002;5.464;2023-06-14T00:42:09;101346.13;;;26.03;36.76
55187;BME280;55457;52.002;5.464;2023-06-14T00:44:34;101339.84;;;26.03;36.86
55187;BME280;55457;52.002;5.464;2023-06-14T00:46:59;101348.03;;;26.03;36.81
55187;BME280;55457;52.002;5.464;2023-06-14T00:49:26;101339.84;;;26.03;36.91
55187;BME280;55457;52.002;5.464;2023-06-14T00:51:51;101345.31;;;26.03;36.65
55187;BME280;55457;52.002;5.464;2023-06-14T00:54:16;101346.41;;;26.02;36.93
55187;BME280;55457;52.002;5.464;2023-06-14T00:56:43;101347.50;;;26.01;36.46
55187;BME280;55457;52.002;5.464;2023-06-14T00:59:09;101345.88;;;26.00;36.71
55187;BME280;55457;52.002;5.464;2023-06-14T01:01:36;101347.50;;;26.01;36.83
55187;BME280;55457;52.002;5.464;2023-06-14T01:04:02;101349.41;;;26.00;36.88
55187;BME280;55457;52.002;5.464;2023-06-14T01:06:45;101346.69;;;26.00;36.60
55187;BME280;55457;52.002;5.464;2023-06-14T01:09:32;101354.59;;;26.02;36.67
55187;BME280;55457;52.002;5.464;2023-06-14T01:12:12;101354.06;;;26.00;36.88
55187;BME280;55457;52.002;5.464;2023-06-14T01:14:39;101350.47;;;25.99;36.63
55187;BME280;55457;52.002;5.464;2023-06-14T01:17:07;101351.34;;;26.00;36.81
55187;BME280;55457;52.002;5.464;2023-06-14T01:19:41;101353.50;;;25.98;36.89
55187;BME280;55457;52.002;5.464;2023-06-14T01:22:08;101352.41;;;25.99;36.82
55187;BME280;55457;52.002;5.464;2023-06-14T01:24:33;101346.41;;;25.97;36.87
55187;BME280;55457;52.002;5.464;2023-06-14T01:27:00;101352.41;;;25.99;36.86
55187;BME280;55457;52.002;5.464;2023-06-14T01:29:26;101342.56;;;25.98;36.78
55187;BME280;55457;52.002;5.464;2023-06-14T01:31:54;101341.75;;;25.97;36.99
55187;BME280;55457;52.002;5.464;2023-06-14T01:34:20;101353.50;;;25.98;36.73
55187;BME280;55457;52.002;5.464;2023-06-14T01:36:46;101360.06;;;25.97;36.73
55187;BME280;55457;52.002;5.464;2023-06-14T01:39:14;101356.22;;;25.98;36.57
55187;BME280;55457;52.002;5.464;2023-06-14T01:41:41;101354.31;;;25.98;36.61
55187;BME280;55457;52.002;5.464;2023-06-14T01:44:07;101347.22;;;25.97;36.65
55187;BME280;55457;52.002;5.464;2023-06-14T01:46:33;101352.69;;;25.97;36.68
55187;BME280;55457;52.002;5.464;2023-06-14T01:48:59;101344.75;;;25.96;36.73
55187;BME280;55457;52.002;5.464;2023-06-14T01:51:24;101349.94;;;25.97;36.65
55187;BME280;55457;52.002;5.464;2023-06-14T01:53:49;101342.56;;;25.98;36.78
55187;BME280;55457;52.002;5.464;2023-06-14T01:56:15;101342.03;;;25.96;36.81
55187;BME280;55457;52.002;5.464;2023-06-14T01:58:41;101347.50;;;25.96;36.86
55187;BME280;55457;52.002;5.464;2023-06-14T02:01:06;101339.31;;;25.96;36.90
55187;BME280;55457;52.002;5.464;2023-06-14T02:03:32;101343.94;;;25.95;36.51
55187;BME280;55457;52.002;5.464;2023-06-14T02:05:58;101337.09;;;25.93;36.47
55187;BME280;55457;52.002;5.464;2023-06-14T02:08:23;101341.47;;;25.94;36.73
55187;BME280;55457;52.002;5.464;2023-06-14T02:10:49;101342.28;;;25.94;36.84
55187;BME280;55457;52.002;5.464;2023-06-14T02:13:15;101337.38;;;25.91;36.87
55187;BME280;55457;52.002;5.464;2023-06-14T02:15:41;101341.47;;;25.94;36.62
55187;BME280;55457;52.002;5.464;2023-06-14T02:18:09;101337.66;;;25.95;36.50
55187;BME280;55457;52.002;5.464;2023-06-14T02:20:35;101336.00;;;25.94;36.50
55187;BME280;55457;52.002;5.464;2023-06-14T02:23:00;101334.38;;;25.93;36.68
55187;BME280;55457;52.002;5.464;2023-06-14T02:25:26;101341.47;;;25.94;36.56
55187;BME280;55457;52.002;5.464;2023-06-14T02:27:53;101338.72;;;25.94;36.54
55187;BME280;55457;52.002;5.464;2023-06-14T02:30:18;101346.91;;;25.94;36.58
55187;BME280;55457;52.002;5.464;2023-06-14T02:32:44;101340.63;;;25.93;36.48
55187;BME280;55457;52.002;5.464;2023-06-14T02:35:10;101345.28;;;25.93;36.53
55187;BME280;55457;52.002;5.464;2023-06-14T02:37:35;101350.75;;;25.93;36.50
55187;BME280;55457;52.002;5.464;2023-06-14T02:40:00;101349.94;;;25.92;36.64
55187;BME280;55457;52.002;5.464;2023-06-14T02:42:26;101343.66;;;25.92;36.48
55187;BME280;55457;52.002;5.464;2023-06-14T02:44:51;101346.38;;;25.92;36.66
55187;BME280;55457;52.002;5.464;2023-06-14T02:47:20;101342.00;;;25.91;36.56
55187;BME280;55457;52.002;5.464;2023-06-14T02:49:45;101352.94;;;25.91;36.62
55187;BME280;55457;52.002;5.464;2023-06-14T02:52:14;101349.13;;;25.92;36.33
55187;BME280;55457;52.002;5.464;2023-06-14T02:54:39;101353.75;;;25.91;36.64
55187;BME280;55457;52.002;5.464;2023-06-14T02:57:05;101348.56;;;25.90;36.31
55187;BME280;55457;52.002;5.464;2023-06-14T02:59:32;101351.31;;;25.90;36.50
55187;BME280;55457;52.002;5.464;2023-06-14T03:01:57;101358.41;;;25.91;36.48
55187;BME280;55457;52.002;5.464;2023-06-14T03:04:23;101352.38;;;25.89;36.29
55187;BME280;55457;52.002;5.464;2023-06-14T03:06:51;101362.22;;;25.90;36.36
55187;BME280;55457;52.002;5.464;2023-06-14T03:09:16;101363.03;;;25.90;36.16
55187;BME280;55457;52.002;5.464;2023-06-14T03:11:41;101364.94;;;25.90;36.31
55187;BME280;55457;52.002;5.464;2023-06-14T03:14:07;101370.41;;;25.90;36.43
55187;BME280;55457;52.002;5.464;2023-06-14T03:16:33;101373.16;;;25.90;36.49
55187;BME280;55457;52.002;5.464;2023-06-14T03:18:58;101367.69;;;25.90;36.41
55187;BME280;55457;52.002;5.464;2023-06-14T03:21:24;101375.88;;;25.90;36.54
55187;BME280;55457;52.002;5.464;2023-06-14T03:23:51;101368.75;;;25.89;36.36
55187;BME280;55457;52.002;5.464;2023-06-14T03:26:16;101375.31;;;25.88;36.18
55187;BME280;55457;52.002;5.464;2023-06-14T03:28:45;101374.22;;;25.89;36.35
55187;BME280;55457;52.002;5.464;2023-06-14T03:31:11;101383.50;;;25.88;36.21
55187;BME280;55457;52.002;5.464;2023-06-14T03:33:37;101378.03;;;25.88;36.26
55187;BME280;55457;52.002;5.464;2023-06-14T03:36:03;101387.88;;;25.89;36.31
55187;BME280;55457;52.002;5.464;2023-06-14T03:38:28;101384.59;;;25.87;36.30
55187;BME280;55457;52.002;5.464;2023-06-14T03:40:54;101389.25;;;25.86;36.37
55187;BME280;55457;52.002;5.464;2023-06-14T03:43:19;101393.59;;;25.87;36.52
55187;BME280;55457;52.002;5.464;2023-06-14T03:45:45;101391.69;;;25.88;36.16
55187;BME280;55457;52.002;5.464;2023-06-14T03:48:10;101397.16;;;25.88;36.21
55187;BME280;55457;52.002;5.464;2023-06-14T03:50:36;101397.44;;;25.86;36.06
55187;BME280;55457;52.002;5.464;2023-06-14T03:53:03;101392.78;;;25.87;36.18
55187;BME280;55457;52.002;5.464;2023-06-14T03:55:29;101396.34;;;25.87;36.19
55187;BME280;55457;52.002;5.464;2023-06-14T03:57:56;101395.50;;;25.87;36.24
55187;BME280;55457;52.002;5.464;2023-06-14T04:00:21;101401.25;;;25.85;36.19
55187;BME280;55457;52.002;5.464;2023-06-14T04:02:47;101402.06;;;25.86;36.27
55187;BME280;55457;52.002;5.464;2023-06-14T04:05:13;101403.72;;;25.87;36.30
55187;BME280;55457;52.002;5.464;2023-06-14T04:07:38;101397.69;;;25.85;35.95
55187;BME280;55457;52.002;5.464;2023-06-14T04:10:10;101413.00;;;25.86;36.07
55187;BME280;55457;52.002;5.464;2023-06-14T04:12:35;101409.44;;;25.85;36.14
55187;BME280;55457;52.002;5.464;2023-06-14T04:15:01;101413.00;;;25.86;36.09
55187;BME280;55457;52.002;5.464;2023-06-14T04:17:26;101414.09;;;25.85;35.89
55187;BME280;55457;52.002;5.464;2023-06-14T04:19:51;101419.53;;;25.85;36.07
55187;BME280;55457;52.002;5.464;2023-06-14T04:22:17;101415.72;;;25.86;35.95
55187;BME280;55457;52.002;5.464;2023-06-14T04:24:43;101413.28;;;25.84;35.82
55187;BME280;55457;52.002;5.464;2023-06-14T04:27:10;101414.09;;;25.85;36.02
55187;BME280;55457;52.002;5.464;2023-06-14T04:29:35;101413.28;;;25.84;35.73
55187;BME280;55457;52.002;5.464;2023-06-14T04:32:01;101419.53;;;25.85;35.94
55187;BME280;55457;52.002;5.464;2023-06-14T04:34:26;101423.34;;;25.84;36.03
55187;BME280;55457;52.002;5.464;2023-06-14T04:36:55;101421.47;;;25.84;35.86
55187;BME280;55457;52.002;5.464;2023-06-14T04:39:20;101419.78;;;25.83;35.96
55187;BME280;55457;52.002;5.464;2023-06-14T04:41:46;101426.91;;;25.84;36.02
55187;BME280;55457;52.002;5.464;2023-06-14T04:44:12;101423.34;;;25.84;36.05
55187;BME280;55457;52.002;5.464;2023-06-14T04:46:38;101434.25;;;25.84;35.88
55187;BME280;55457;52.002;5.464;2023-06-14T04:49:20;101423.34;;;25.84;36.02
55187;BME280;55457;52.002;5.464;2023-06-14T04:51:45;101435.34;;;25.83;36.10
55187;BME280;55457;52.002;5.464;2023-06-14T04:54:12;101431.53;;;25.84;35.89
55187;BME280;55457;52.002;5.464;2023-06-14T04:56:43;101434.25;;;25.84;35.80
55187;BME280;55457;52.002;5.464;2023-06-14T04:59:09;101427.97;;;25.83;35.74
55187;BME280;55457;52.002;5.464;2023-06-14T05:01:36;101434.25;;;25.84;35.89
55187;BME280;55457;52.002;5.464;2023-06-14T05:04:02;101433.72;;;25.82;36.10
55187;BME280;55457;52.002;5.464;2023-06-14T05:06:29;101441.38;;;25.85;35.97
55187;BME280;55457;52.002;5.464;2023-06-14T05:08:55;101440.81;;;25.83;35.81
55187;BME280;55457;52.002;5.464;2023-06-14T05:11:20;101443.53;;;25.83;35.97
55187;BME280;55457;52.002;5.464;2023-06-14T05:13:46;101449.00;;;25.83;35.74
55187;BME280;55457;52.002;5.464;2023-06-14T05:16:12;101441.63;;;25.83;36.08
55187;BME280;55457;52.002;5.464;2023-06-14T05:18:37;101443.53;;;25.83;35.79
55187;BME280;55457;52.002;5.464;2023-06-14T05:21:03;101440.81;;;25.83;36.08
55187;BME280;55457;52.002;5.464;2023-06-14T05:23:32;101443.53;;;25.83;35.70
55187;BME280;55457;52.002;5.464;2023-06-14T05:25:57;101449.00;;;25.83;36.02
55187;BME280;55457;52.002;5.464;2023-06-14T05:28:23;101444.63;;;25.82;35.94
55187;BME280;55457;52.002;5.464;2023-06-14T05:30:49;101448.47;;;25.81;35.96
55187;BME280;55457;52.002;5.464;2023-06-14T05:33:15;101451.75;;;25.83;35.97
55187;BME280;55457;52.002;5.464;2023-06-14T05:35:40;101454.47;;;25.83;36.04
55187;BME280;55457;52.002;5.464;2023-06-14T05:38:05;101448.19;;;25.82;35.88
55187;BME280;55457;52.002;5.464;2023-06-14T05:40:32;101452.00;;;25.81;36.01
55187;BME280;55457;52.002;5.464;2023-06-14T05:42:58;101451.75;;;25.83;35.85
55187;BME280;55457;52.002;5.464;2023-06-14T05:45:23;101454.47;;;25.83;36.07
55187;BME280;55457;52.002;5.464;2023-06-14T05:47:48;101459.94;;;25.83;35.94
55187;BME280;55457;52.002;5.464;2023-06-14T05:50:14;101459.94;;;25.83;35.88
55187;BME280;55457;52.002;5.464;2023-06-14T05:52:39;101462.66;;;25.83;35.97
55187;BME280;55457;52.002;5.464;2023-06-14T05:55:04;101468.13;;;25.83;36.14
55187;BME280;55457;52.002;5.464;2023-06-14T05:57:31;101468.13;;;25.83;36.01
55187;BME280;55457;52.002;5.464;2023-06-14T05:59:56;101472.22;;;25.80;36.00
55187;BME280;55457;52.002;5.464;2023-06-14T06:02:21;101473.56;;;25.83;36.01
55187;BME280;55457;52.002;5.464;2023-06-14T06:04:47;101473.56;;;25.83;36.16
55187;BME280;55457;52.002;5.464;2023-06-14T06:07:12;101476.31;;;25.83;35.96
55187;BME280;55457;52.002;5.464;2023-06-14T06:09:37;101473.56;;;25.83;36.12
55187;BME280;55457;52.002;5.464;2023-06-14T06:12:04;101480.69;;;25.84;36.18
55187;BME280;55457;52.002;5.464;2023-06-14T06:14:30;101473.56;;;25.83;36.03
55187;BME280;55457;52.002;5.464;2023-06-14T06:16:55;101471.66;;;25.83;36.00
55187;BME280;55457;52.002;5.464;2023-06-14T06:19:21;101481.78;;;25.83;36.09
55187;BME280;55457;52.002;5.464;2023-06-14T06:21:46;101483.41;;;25.84;36.19
55187;BME280;55457;52.002;5.464;2023-06-14T06:24:11;101481.78;;;25.83;35.99
55187;BME280;55457;52.002;5.464;2023-06-14T06:26:36;101488.88;;;25.84;36.06
55187;BME280;55457;52.002;5.464;2023-06-14T06:29:02;101486.13;;;25.84;36.16
55187;BME280;55457;52.002;5.464;2023-06-14T06:31:27;101487.81;;;25.85;36.14
55187;BME280;55457;52.002;5.464;2023-06-14T06:33:54;101483.41;;;25.84;36.10
55187;BME280;55457;52.002;5.464;2023-06-14T06:36:20;101485.06;;;25.85;36.01
55187;BME280;55457;52.002;5.464;2023-06-14T06:38:47;101477.94;;;25.84;36.05
55187;BME280;55457;52.002;5.464;2023-06-14T06:41:12;101488.88;;;25.84;36.05
55187;BME280;55457;52.002;5.464;2023-06-14T06:43:37;101494.09;;;25.85;36.34
55187;BME280;55457;52.002;5.464;2023-06-14T06:46:02;101494.09;;;25.85;36.99
55187;BME280;55457;52.002;5.464;2023-06-14T06:48:28;101497.63;;;25.86;36.54
55187;BME280;55457;52.002;5.464;2023-06-14T06:50:54;101503.91;;;25.86;36.40
55187;BME280;55457;52.002;5.464;2023-06-14T06:53:19;101508.56;;;25.86;36.51
55187;BME280;55457;52.002;5.464;2023-06-14T06:55:44;101503.63;;;25.83;36.34
55187;BME280;55457;52.002;5.464;2023-06-14T06:58:11;101509.34;;;25.81;36.23
55187;BME280;55457;52.002;5.464;2023-06-14T07:00:37;101506.63;;;25.81;36.19
55187;BME280;55457;52.002;5.464;2023-06-14T07:03:02;101507.44;;;25.82;35.97
55187;BME280;55457;52.002;5.464;2023-06-14T07:05:29;101512.91;;;25.82;36.02
55187;BME280;55457;52.002;5.464;2023-06-14T07:07:54;101516.41;;;25.77;36.38
55187;BME280;55457;52.002;5.464;2023-06-14T07:10:20;101512.88;;;25.76;35.85
55187;BME280;55457;52.002;5.464;2023-06-14T07:12:45;101516.06;;;25.73;35.89
55187;BME280;55457;52.002;5.464;2023-06-14T07:15:11;101522.91;;;25.71;36.31
55187;BME280;55457;52.002;5.464;2023-06-14T07:17:36;101517.13;;;25.67;36.25
55187;BME280;55457;52.002;5.464;2023-06-14T07:20:03;101529.19;;;25.71;36.38
55187;BME280;55457;52.002;5.464;2023-06-14T07:22:33;101524.88;;;25.75;37.40
55187;BME280;55457;52.002;5.464;2023-06-14T07:24:58;101517.00;;;25.79;38.03
55187;BME280;55457;52.002;5.464;2023-06-14T07:27:23;101527.09;;;25.84;38.31
55187;BME280;55457;52.002;5.464;2023-06-14T07:29:49;101531.75;;;25.88;38.09
55187;BME280;55457;52.002;5.464;2023-06-14T07:32:14;101523.88;;;25.92;37.89
55187;BME280;55457;52.002;5.464;2023-06-14T07:34:39;101516.22;;;25.94;37.96
55187;BME280;55457;52.002;5.464;2023-06-14T07:37:05;101532.09;;;25.97;38.11
55187;BME280;55457;52.002;5.464;2023-06-14T07:39:31;101539.19;;;25.98;37.95
55187;BME280;55457;52.002;5.464;2023-06-14T07:41:56;101539.19;;;25.98;37.35
55187;BME280;55457;52.002;5.464;2023-06-14T07:44:21;101541.66;;;25.99;37.42
55187;BME280;55457;52.002;5.464;2023-06-14T07:46:46;101538.09;;;25.99;37.01
55187;BME280;55457;52.002;5.464;2023-06-14T07:49:14;101544.66;;;25.98;37.05
55187;BME280;55457;52.002;5.464;2023-06-14T07:51:40;101542.50;;;26.00;37.27
55187;BME280;55457;52.002;5.464;2023-06-14T07:54:05;101544.66;;;25.98;37.08
55187;BME280;55457;52.002;5.464;2023-06-14T07:56:32;101543.03;;;25.97;36.98
55187;BME280;55457;52.002;5.464;2023-06-14T07:58:57;101548.47;;;25.97;37.03
55187;BME280;55457;52.002;5.464;2023-06-14T08:01:23;101549.56;;;25.96;37.19
55187;BME280;55457;52.002;5.464;2023-06-14T08:03:50;101546.03;;;25.95;37.16
55187;BME280;55457;52.002;5.464;2023-06-14T08:06:15;101555.28;;;25.94;37.09
55187;BME280;55457;52.002;5.464;2023-06-14T08:08:41;101550.09;;;25.93;37.00
55187;BME280;55457;52.002;5.464;2023-06-14T08:11:06;101559.94;;;25.94;37.08
55187;BME280;55457;52.002;5.464;2023-06-14T08:13:31;101558.88;;;25.95;37.17
55187;BME280;55457;52.002;5.464;2023-06-14T08:15:57;101550.91;;;25.93;37.19
55187;BME280;55457;52.002;5.464;2023-06-14T08:18:23;101552.81;;;25.93;37.27
55187;BME280;55457;52.002;5.464;2023-06-14T08:20:48;101554.47;;;25.94;37.19
55187;BME280;55457;52.002;5.464;2023-06-14T08:23:15;101546.28;;;25.94;37.19
55187;BME280;55457;52.002;5.464;2023-06-14T08:25:44;101556.38;;;25.93;37.43
55187;BME280;55457;52.002;5.464;2023-06-14T08:28:09;101558.00;;;25.94;37.36
55187;BME280;55457;52.002;5.464;2023-06-14T08:30:34;101552.56;;;25.94;37.37
55187;BME280;55457;52.002;5.464;2023-06-14T08:33:00;101549.00;;;25.94;37.62
55187;BME280;55457;52.002;5.464;2023-06-14T08:35:26;101556.13;;;25.95;37.48
55187;BME280;55457;52.002;5.464;2023-06-14T08:37:51;101547.38;;;25.93;37.68
55187;BME280;55457;52.002;5.464;2023-06-14T08:40:23;101550.66;;;25.95;37.38
55187;BME280;55457;52.002;5.464;2023-06-14T08:42:53;101556.94;;;25.95;37.60
55187;BME280;55457;52.002;5.464;2023-06-14T08:45:20;101546.28;;;25.94;37.62
55187;BME280;55457;52.002;5.464;2023-06-14T08:47:47;101550.66;;;25.95;37.48
55187;BME280;55457;52.002;5.464;2023-06-14T08:50:19;101548.75;;;25.95;37.80
55187;BME280;55457;52.002;5.464;2023-06-14T08:52:45;101546.84;;;25.96;37.54
55187;BME280;55457;52.002;5.464;2023-06-14T08:55:15;101545.22;;;25.95;37.48
55187;BME280;55457;52.002;5.464;2023-06-14T08:57:43;101547.66;;;25.96;37.64
55187;BME280;55457;52.002;5.464;2023-06-14T09:00:10;101551.22;;;25.97;37.72
55187;BME280;55457;52.002;5.464;2023-06-14T09:02:40;101557.78;;;25.96;37.67
55187;BME280;55457;52.002;5.464;2023-06-14T09:05:11;101548.47;;;25.97;37.98
55187;BME280;55457;52.002;5.464;2023-06-14T09:07:41;101555.59;;;25.98;37.85
55187;BME280;55457;52.002;5.464;2023-06-14T09:10:14;101566.50;;;25.98;37.75
55187;BME280;55457;52.002;5.464;2023-06-14T09:12:40;101561.88;;;25.98;37.71
55187;BME280;55457;52.002;5.464;2023-06-14T09:15:06;101562.69;;;25.99;37.88
55187;BME280;55457;52.002;5.464;2023-06-14T09:17:35;101559.94;;;25.99;37.71
55187;BME280;55457;52.002;5.464;2023-06-14T09:20:05;101562.69;;;25.99;38.01
55187;BME280;55457;52.002;5.464;2023-06-14T09:22:35;101572.56;;;26.00;37.90
55187;BME280;55457;52.002;5.464;2023-06-14T09:25:01;101564.34;;;26.00;37.64
55187;BME280;55457;52.002;5.464;2023-06-14T09:27:27;101576.09;;;26.00;37.97
55187;BME280;55457;52.002;5.464;2023-06-14T09:29:53;101571.47;;;26.01;37.70
55187;BME280;55457;52.002;5.464;2023-06-14T09:32:19;101569.81;;;26.00;37.81
55187;BME280;55457;52.002;5.464;2023-06-14T09:34:45;101561.63;;;26.00;37.84
55187;BME280;55457;52.002;5.464;2023-06-14T09:37:11;101557.81;;;26.01;37.71
55187;BME280;55457;52.002;5.464;2023-06-14T09:39:49;101567.63;;;26.02;37.90
55187;BME280;55457;52.002;5.464;2023-06-14T09:42:18;101564.91;;;26.02;37.75
55187;BME280;55457;52.002;5.464;2023-06-14T09:44:47;101561.06;;;26.03;37.89
55187;BME280;55457;52.002;5.464;2023-06-14T09:47:15;101555.63;;;26.03;38.03
55187;BME280;55457;52.002;5.464;2023-06-14T09:49:40;101562.72;;;26.04;37.72
55187;BME280;55457;52.002;5.464;2023-06-14T09:52:06;101565.44;;;26.04;37.90
55187;BME280;55457;52.002;5.464;2023-06-14T09:54:39;101556.19;;;26.05;37.70
55187;BME280;55457;52.002;5.464;2023-06-14T09:57:07;101560.81;;;26.05;37.58
55187;BME280;55457;52.002;5.464;2023-06-14T09:59:34;101561.66;;;26.05;37.76
55187;BME280;55457;52.002;5.464;2023-06-14T10:02:10;101556.19;;;26.05;37.77
55187;BME280;55457;52.002;5.464;2023-06-14T10:04:37;101556.19;;;26.05;37.88
55187;BME280;55457;52.002;5.464;2023-06-14T10:07:03;101557.84;;;26.06;37.75
55187;BME280;55457;52.002;5.464;2023-06-14T10:09:30;101552.38;;;26.06;37.78
55187;BME280;55457;52.002;5.464;2023-06-14T10:11:56;101559.47;;;26.07;37.63
55187;BME280;55457;52.002;5.464;2023-06-14T10:14:21;101558.66;;;26.07;37.87
55187;BME280;55457;52.002;5.464;2023-06-14T10:16:59;101563.84;;;26.08;37.82
55187;BME280;55457;52.002;5.464;2023-06-14T10:19:35;101550.19;;;26.08;37.83
55187;BME280;55457;52.002;5.464;2023-06-14T10:22:09;101550.19;;;26.08;37.69
55187;BME280;55457;52.002;5.464;2023-06-14T10:24:43;101554.56;;;26.09;37.51
55187;BME280;55457;52.002;5.464;2023-06-14T10:27:08;101548.28;;;26.09;37.70
55187;BME280;55457;52.002;5.464;2023-06-14T10:32:18;101556.22;;;26.10;37.79
55187;BME280;55457;52.002;5.464;2023-06-14T10:34:44;101552.63;;;26.10;38.05
55187;BME280;55457;52.002;5.464;2023-06-14T10:37:13;101554.56;;;26.09;37.83
55187;BME280;55457;52.002;5.464;2023-06-14T10:39:40;101547.47;;;26.13;38.10
55187;BME280;55457;52.002;5.464;2023-06-14T10:42:06;101551.03;;;26.14;38.37
55187;BME280;55457;52.002;5.464;2023-06-14T10:44:51;101563.34;;;26.16;38.03
55187;BME280;55457;52.002;5.464;2023-06-14T10:49:51;101554.88;;;26.18;37.70
55187;BME280;55457;52.002;5.464;2023-06-14T10:52:21;101558.16;;;26.20;37.87
55187;BME280;55457;52.002;5.464;2023-06-14T10:57:24;101562.56;;;26.21;37.76
55187;BME280;55457;52.002;5.464;2023-06-14T10:59:50;101558.47;;;26.23;37.92
55187;BME280;55457;52.002;5.464;2023-06-14T11:02:46;101561.19;;;26.23;37.44
55187;BME280;55457;52.002;5.464;2023-06-14T11:05:15;101560.09;;;26.24;37.73
55187;BME280;55457;52.002;5.464;2023-06-14T11:08:23;101567.19;;;26.25;37.75
55187;BME280;55457;52.002;5.464;2023-06-14T11:10:54;101560.91;;;26.25;37.69
55187;BME280;55457;52.002;5.464;2023-06-14T11:13:24;101551.38;;;26.27;37.53
55187;BME280;55457;52.002;5.464;2023-06-14T11:15:50;101559.56;;;26.27;37.58
55187;BME280;55457;52.002;5.464;2023-06-14T11:18:18;101548.66;;;26.27;37.74
55187;BME280;55457;52.002;5.464;2023-06-14T11:20:46;101542.09;;;26.28;37.86
55187;BME280;55457;52.002;5.464;2023-06-14T11:23:12;101546.47;;;26.29;37.78
55187;BME280;55457;52.002;5.464;2023-06-14T11:25:37;101546.47;;;26.29;37.59
55187;BME280;55457;52.002;5.464;2023-06-14T11:28:03;101540.75;;;26.31;37.85
55187;BME280;55457;52.002;5.464;2023-06-14T11:30:28;101538.00;;;26.31;37.74
55187;BME280;55457;52.002;5.464;2023-06-14T11:32:54;101545.94;;;26.33;37.93
55187;BME280;55457;52.002;5.464;2023-06-14T11:35:24;101539.66;;;26.32;37.78
55187;BME280;55457;52.002;5.464;2023-06-14T11:37:56;101536.66;;;26.34;37.87
55187;BME280;55457;52.002;5.464;2023-06-14T11:40:24;101539.38;;;26.34;38.09
55187;BME280;55457;52.002;5.464;2023-06-14T11:42:58;101540.47;;;26.33;37.89
55187;BME280;55457;52.002;5.464;2023-06-14T11:45:24;101542.13;;;26.34;38.16
55187;BME280;55457;52.002;5.464;2023-06-14T11:47:50;101525.72;;;26.34;38.17
55187;BME280;55457;52.002;5.464;2023-06-14T11:50:15;101532.00;;;26.34;38.09
55187;BME280;55457;52.002;5.464;2023-06-14T11:52:41;101532.81;;;26.35;37.81
55187;BME280;55457;52.002;5.464;2023-06-14T11:55:06;101530.09;;;26.35;38.14
55187;BME280;55457;52.002;5.464;2023-06-14T11:57:35;101538.28;;;26.35;37.88
55187;BME280;55457;52.002;5.464;2023-06-14T12:00:06;101542.66;;;26.36;38.20
55187;BME280;55457;52.002;5.464;2023-06-14T12:02:37;101539.91;;;26.36;38.40
55187;BME280;55457;52.002;5.464;2023-06-14T12:05:06;101539.09;;;26.35;38.40
55187;BME280;55457;52.002;5.464;2023-06-14T12:07:36;101535.56;;;26.35;38.20
55187;BME280;55457;52.002;5.464;2023-06-14T12:12:28;101532.81;;;26.35;38.30
55187;BME280;55457;52.002;5.464;2023-06-14T12:14:55;101535.00;;;26.33;38.21
55187;BME280;55457;52.002;5.464;2023-06-14T12:17:22;101547.56;;;26.34;38.40
55187;BME280;55457;52.002;5.464;2023-06-14T12:19:49;101545.94;;;26.33;38.04
55187;BME280;55457;52.002;5.464;2023-06-14T12:22:16;101538.84;;;26.32;38.11
55187;BME280;55457;52.002;5.464;2023-06-14T12:24:44;101542.13;;;26.34;38.10
55187;BME280;55457;52.002;5.464;2023-06-14T12:27:10;101527.34;;;26.35;38.19
55187;BME280;55457;52.002;5.464;2023-06-14T12:29:43;101543.75;;;26.35;38.26
55187;BME280;55457;52.002;5.464;2023-06-14T12:32:09;101529.00;;;26.36;38.09
55187;BME280;55457;52.002;5.464;2023-06-14T12:34:35;101534.47;;;26.36;38.14
55187;BME280;55457;52.002;5.464;2023-06-14T12:37:00;101533.94;;;26.39;38.11
55187;BME280;55457;52.002;5.464;2023-06-14T12:39:26;101535.56;;;26.40;38.44
55187;BME280;55457;52.002;5.464;2023-06-14T12:41:51;101541.63;;;26.42;38.24
55187;BME280;55457;52.002;5.464;2023-06-14T12:44:16;101533.44;;;26.42;38.13
55187;BME280;55457;52.002;5.464;2023-06-14T12:46:42;101547.66;;;26.44;38.32
55187;BME280;55457;52.002;5.464;2023-06-14T12:49:09;101536.72;;;26.44;38.26
55187;BME280;55457;52.002;5.464;2023-06-14T12:51:36;101532.88;;;26.45;38.21
55187;BME280;55457;52.002;5.464;2023-06-14T12:54:01;101542.72;;;26.46;38.11
55187;BME280;55457;52.002;5.464;2023-06-14T12:56:26;101543.28;;;26.48;38.21
55187;BME280;55457;52.002;5.464;2023-06-14T12:58:52;101537.84;;;26.48;38.14